createdAt,value
2023-02-04T00:00:07.735Z,93903.38
2023-02-04T00:02:34.988Z,93875.63
2023-02-04T00:05:01.750Z,93873.31
2023-02-04T00:07:28.382Z,93876.31
2023-02-04T00:09:55.122Z,93878.19
2023-02-04T00:12:21.978Z,93866.03
2023-02-04T00:14:48.631Z,93868.09
2023-02-04T00:17:15.455Z,93865.94
2023-02-04T00:19:42.788Z,93861.31
2023-02-04T00:22:09.784Z,93849.22
2023-02-04T00:24:37.734Z,93853.25
2023-02-04T00:27:05.540Z,93838.22
2023-02-04T00:29:32.166Z,93837.06
2023-02-04T00:31:58.907Z,93839.22
2023-02-04T00:34:25.962Z,93846.97
2023-02-04T00:36:52.576Z,93858.34
2023-02-04T00:39:19.248Z,93843.38
2023-02-04T00:41:45.884Z,93809.25
2023-02-04T00:44:14.180Z,93806.41
2023-02-04T00:46:43.726Z,93846.50
2023-02-04T00:49:11.160Z,93822.19
2023-02-04T00:51:39.430Z,93785.34
2023-02-04T00:54:07.331Z,93784.34
2023-02-04T00:56:35.432Z,93817.50
2023-02-04T00:59:02.175Z,93820.47
2023-02-04T01:01:28.953Z,93808.69
2023-02-04T01:03:55.648Z,93806.16
2023-02-04T01:06:22.302Z,93810.88
2023-02-04T01:08:49.083Z,93797.78
2023-02-04T01:11:16.012Z,93794.63
2023-02-04T01:13:43.096Z,93791.88
2023-02-04T01:16:09.925Z,93780.66
2023-02-04T01:18:36.867Z,93778.63
2023-02-04T01:21:03.695Z,93794.94
2023-02-04T01:23:30.402Z,93805.69
2023-02-04T01:25:57.217Z,93783.50
2023-02-04T01:28:24.072Z,93758.41
2023-02-04T01:30:50.746Z,93759.72
2023-02-04T01:33:17.508Z,93751.88
2023-02-04T01:35:44.161Z,93753.19
2023-02-04T01:38:10.762Z,93760.06
2023-02-04T01:40:37.624Z,93752.66
2023-02-04T01:43:04.568Z,93734.91
2023-02-04T01:45:34.456Z,93751.13
2023-02-04T01:48:04.071Z,93753.72
2023-02-04T01:50:31.161Z,93743.31
2023-02-04T01:52:58.494Z,93759.50
2023-02-04T01:55:28.419Z,93742.84
2023-02-04T01:57:56.159Z,93740.09
2023-02-04T02:00:30.042Z,93737.78
2023-02-04T02:02:57.842Z,93740.97
2023-02-04T02:05:29.139Z,93725.22
2023-02-04T02:07:58.733Z,93734.50
2023-02-04T02:10:25.865Z,93720.22
2023-02-04T02:12:55.278Z,93704.47
2023-02-04T02:15:22.230Z,93696.59
2023-02-04T02:17:49.463Z,93687.75
2023-02-04T02:20:17.944Z,93692.00
2023-02-04T02:23:06.316Z,93720.81
2023-02-04T02:25:33.645Z,93682.06
2023-02-04T02:28:01.815Z,93692.25
2023-02-04T02:30:29.690Z,93673.28
2023-02-04T02:32:57.568Z,93661.41
2023-02-04T02:35:24.385Z,93652.91
2023-02-04T02:37:51.383Z,93631.69
2023-02-04T02:40:18.820Z,93653.34
2023-02-04T02:42:51.002Z,93646.50
2023-02-04T02:45:27.149Z,93620.53
2023-02-04T02:47:56.325Z,93638.94
2023-02-04T02:50:25.973Z,93630.75
2023-02-04T02:52:53.840Z,93635.25
2023-02-04T02:55:23.817Z,93637.38
2023-02-04T02:57:52.221Z,93618.97
2023-02-04T03:00:25.177Z,93621.25
2023-02-04T03:03:04.655Z,93634.50
2023-02-04T03:05:36.434Z,93622.44
2023-02-04T03:08:03.800Z,93609.38
2023-02-04T03:10:31.068Z,93621.16
2023-02-04T03:12:59.266Z,93610.34
2023-02-04T03:15:26.467Z,93635.53
2023-02-04T03:17:56.581Z,93630.81
2023-02-04T03:20:25.520Z,93628.47
2023-02-04T03:22:52.793Z,93621.63
2023-02-04T03:25:20.519Z,93619.72
2023-02-04T03:27:47.579Z,93591.63
2023-02-04T03:30:14.253Z,93632.41
2023-02-04T03:32:41.830Z,93623.00
2023-02-04T03:35:09.395Z,93638.50
2023-02-04T03:37:35.991Z,93635.50
2023-02-04T03:40:02.733Z,93646.75
2023-02-04T03:42:29.302Z,93620.78
2023-02-04T03:44:56.028Z,93607.56
2023-02-04T03:47:22.644Z,93601.22
2023-02-04T03:49:49.292Z,93608.38
2023-02-04T03:52:15.967Z,93612.25
2023-02-04T03:54:42.630Z,93602.63
2023-02-04T03:57:10.019Z,93595.50
2023-02-04T03:59:36.712Z,93580.88
2023-02-04T04:02:04.004Z,93573.00
2023-02-04T04:04:30.604Z,93572.16
2023-02-04T04:06:57.172Z,93575.06
2023-02-04T04:09:23.746Z,93560.78
2023-02-04T04:11:50.383Z,93545.53
2023-02-04T04:14:16.997Z,93554.03
2023-02-04T04:16:43.594Z,93535.75
2023-02-04T04:19:10.172Z,93534.59
2023-02-04T04:21:36.814Z,93523.31
2023-02-04T04:24:03.516Z,93525.41
2023-02-04T04:26:30.160Z,93551.56
2023-02-04T04:28:56.774Z,93559.34
2023-02-04T04:31:23.432Z,93545.03
2023-02-04T04:33:50.115Z,93560.19
2023-02-04T04:36:16.770Z,93564.03
2023-02-04T04:38:43.405Z,93560.69
2023-02-04T04:41:09.992Z,93561.91
2023-02-04T04:43:36.583Z,93563.88
2023-02-04T04:46:03.176Z,93587.50
2023-02-04T04:48:29.807Z,93598.44
2023-02-04T04:50:56.412Z,93579.34
2023-02-04T04:53:23.006Z,93588.13
2023-02-04T04:55:49.583Z,93596.00
2023-02-04T04:58:16.256Z,93598.84
2023-02-04T05:00:42.925Z,93587.78
2023-02-04T05:03:09.604Z,93590.28
2023-02-04T05:05:39.994Z,93592.19
2023-02-04T05:08:10.975Z,93589.03
2023-02-04T05:10:37.775Z,93580.50
2023-02-04T05:13:04.434Z,93597.38
2023-02-04T05:15:31.128Z,93588.47
2023-02-04T05:17:58.474Z,93596.63
2023-02-04T05:20:25.684Z,93596.97
2023-02-04T05:22:52.446Z,93608.44
2023-02-04T05:25:19.218Z,93617.47
2023-02-04T05:27:46.338Z,93618.25
2023-02-04T05:30:14.156Z,93621.97
2023-02-04T05:32:41.856Z,93613.22
2023-02-04T05:35:08.730Z,93623.78
2023-02-04T05:37:35.378Z,93651.31
2023-02-04T05:40:02.347Z,93669.91
2023-02-04T05:42:28.958Z,93673.72
2023-02-04T05:44:55.566Z,93675.63
2023-02-04T05:47:22.219Z,93684.16
2023-02-04T05:49:48.852Z,93685.72
2023-02-04T05:52:15.521Z,93691.91
2023-02-04T05:54:47.850Z,93685.38
2023-02-04T05:57:14.513Z,93679.59
2023-02-04T05:59:41.110Z,93680.16
2023-02-04T06:02:07.757Z,93656.19
2023-02-04T06:04:34.402Z,93637.72
2023-02-04T06:07:03.497Z,93629.19
2023-02-04T06:09:30.104Z,93620.81
2023-02-04T06:11:57.651Z,93636.84
2023-02-04T06:14:24.296Z,93648.78
2023-02-04T06:16:50.968Z,93645.22
2023-02-04T06:19:17.768Z,93654.97
2023-02-04T06:21:44.431Z,93658.25
2023-02-04T06:24:11.081Z,93670.06
2023-02-04T06:26:38.502Z,93679.47
2023-02-04T06:29:05.315Z,93668.31
2023-02-04T06:31:32.114Z,93661.66
2023-02-04T06:33:58.841Z,93664.09
2023-02-04T06:36:25.508Z,93664.25
2023-02-04T06:38:52.122Z,93678.28
2023-02-04T06:41:18.682Z,93679.44
2023-02-04T06:43:45.356Z,93677.25
2023-02-04T06:46:11.984Z,93691.09
2023-02-04T06:48:38.594Z,93682.19
2023-02-04T06:51:05.691Z,93680.78
2023-02-04T06:53:32.338Z,93669.97
2023-02-04T06:55:58.942Z,93680.97
2023-02-04T06:58:25.556Z,93672.47
2023-02-04T07:00:52.224Z,93658.50
2023-02-04T07:03:18.930Z,93664.03
2023-02-04T07:05:45.539Z,93662.03
2023-02-04T07:08:12.253Z,93666.50
2023-02-04T07:10:38.930Z,93672.47
2023-02-04T07:13:05.543Z,93663.34
2023-02-04T07:15:32.302Z,93672.66
2023-02-04T07:17:59.034Z,93677.75
2023-02-04T07:20:25.618Z,93669.31
2023-02-04T07:22:52.214Z,93668.13
2023-02-04T07:25:18.831Z,93653.13
2023-02-04T07:27:45.490Z,93659.28
2023-02-04T07:30:12.932Z,93647.50
2023-02-04T07:32:39.671Z,93654.00
2023-02-04T07:35:06.830Z,93663.72
2023-02-04T07:37:33.468Z,93648.47
2023-02-04T07:40:00.134Z,93641.00
2023-02-04T07:42:26.799Z,93641.22
2023-02-04T07:44:53.379Z,93638.59
2023-02-04T07:47:20.056Z,93647.59
2023-02-04T07:49:46.707Z,93650.72
2023-02-04T07:52:13.340Z,93648.63
2023-02-04T07:54:39.912Z,93643.78
2023-02-04T07:57:06.538Z,93635.25
2023-02-04T07:59:33.090Z,93653.59
2023-02-04T08:01:59.863Z,93653.34
2023-02-04T08:04:26.535Z,93644.44
2023-02-04T08:06:53.182Z,93654.94
2023-02-04T08:09:19.821Z,93654.13
2023-02-04T08:11:46.371Z,93649.41
2023-02-04T08:14:13.177Z,93657.06
2023-02-04T08:16:39.828Z,93641.19
2023-02-04T08:19:06.399Z,93641.47
2023-02-04T08:21:33.071Z,93631.25
2023-02-04T08:23:59.673Z,93640.56
2023-02-04T08:26:26.282Z,93643.50
2023-02-04T08:28:53.080Z,93639.91
2023-02-04T08:31:19.735Z,93636.53
2023-02-04T08:33:46.340Z,93637.19
2023-02-04T08:36:12.913Z,93641.72
2023-02-04T08:38:41.197Z,93627.44
2023-02-04T08:41:07.920Z,93628.72
2023-02-04T08:43:34.573Z,93626.44
2023-02-04T08:46:01.152Z,93626.84
2023-02-04T08:48:27.761Z,93627.13
2023-02-04T08:50:54.319Z,93632.28
2023-02-04T08:53:20.901Z,93619.75
2023-02-04T08:55:47.481Z,93619.53
2023-02-04T08:58:14.111Z,93623.03
2023-02-04T09:00:40.850Z,93619.69
2023-02-04T09:03:07.940Z,93632.28
2023-02-04T09:05:34.541Z,93610.31
2023-02-04T09:08:01.168Z,93610.19
2023-02-04T09:10:27.839Z,93606.16
2023-02-04T09:12:56.133Z,93603.78
2023-02-04T09:15:27.271Z,93605.81
2023-02-04T09:17:55.752Z,93611.16
2023-02-04T09:20:22.322Z,93608.38
2023-02-04T09:22:50.319Z,93610.97
2023-02-04T09:25:17.065Z,93614.59
2023-02-04T09:27:43.768Z,93615.50
2023-02-04T09:30:10.928Z,93611.22
2023-02-04T09:32:37.575Z,93611.81
2023-02-04T09:35:04.480Z,93601.94
2023-02-04T09:37:31.128Z,93614.41
2023-02-04T09:39:57.782Z,93603.00
2023-02-04T09:42:26.373Z,93601.13
2023-02-04T09:44:53.294Z,93613.81
2023-02-04T09:47:24.148Z,93601.34
2023-02-04T09:49:50.781Z,93589.22
2023-02-04T09:52:19.671Z,93587.81
2023-02-04T09:54:46.692Z,93586.16
2023-02-04T09:57:16.975Z,93580.09
2023-02-04T09:59:44.628Z,93573.75
2023-02-04T10:02:25.284Z,93573.66
2023-02-04T10:04:55.009Z,93551.22
2023-02-04T10:07:25.206Z,93569.38
2023-02-04T10:09:54.372Z,93564.94
2023-02-04T10:12:21.812Z,93557.13
2023-02-04T10:14:48.825Z,93568.75
2023-02-04T10:17:22.072Z,93564.28
2023-02-04T10:19:49.639Z,93559.25
2023-02-04T10:22:19.396Z,93568.88
2023-02-04T10:24:46.115Z,93551.06
2023-02-04T10:27:17.678Z,93542.16
2023-02-04T10:29:58.673Z,93550.84
2023-02-04T10:32:31.609Z,93560.53
2023-02-04T10:35:03.194Z,93546.97
2023-02-04T10:37:30.847Z,93563.06
2023-02-04T10:39:58.046Z,93559.94
2023-02-04T10:42:27.137Z,93555.41
2023-02-04T10:44:54.308Z,93550.22
2023-02-04T10:47:27.230Z,93542.88
2023-02-04T10:50:18.364Z,93543.94
2023-02-04T10:52:49.744Z,93538.38
2023-02-04T10:55:22.549Z,93539.97
2023-02-04T10:57:51.814Z,93538.19
2023-02-04T11:00:21.609Z,93528.63
2023-02-04T11:03:08.249Z,93523.03
2023-02-04T11:05:36.336Z,93524.47
2023-02-04T11:08:19.526Z,93517.72
2023-02-04T11:10:46.693Z,93517.75
2023-02-04T11:13:26.339Z,93506.97
2023-02-04T11:16:10.995Z,93508.97
2023-02-04T11:18:53.098Z,93506.44
2023-02-04T11:21:42.434Z,93497.56
2023-02-04T11:24:12.045Z,93510.34
2023-02-04T11:26:53.142Z,93510.78
2023-02-04T11:29:34.901Z,93505.03
2023-02-04T11:32:26.034Z,93501.28
2023-02-04T11:34:53.130Z,93503.22
2023-02-04T11:37:36.150Z,93505.38
2023-02-04T11:40:20.348Z,93505.56
2023-02-04T11:42:48.299Z,93508.22
2023-02-04T11:45:25.432Z,93508.81
2023-02-04T11:47:52.265Z,93516.69
2023-02-04T11:50:38.545Z,93516.75
2023-02-04T11:53:05.594Z,93511.56
2023-02-04T11:55:36.076Z,93513.03
2023-02-04T11:58:03.414Z,93512.28
2023-02-04T12:00:32.536Z,93511.94
2023-02-04T12:03:07.907Z,93509.31
2023-02-04T12:05:47.285Z,93515.41
2023-02-04T12:08:25.177Z,93514.38
2023-02-04T12:11:01.886Z,93515.69
2023-02-04T12:13:30.941Z,93509.09
2023-02-04T12:16:07.709Z,93505.25
2023-02-04T12:18:35.297Z,93502.47
2023-02-04T12:21:04.487Z,93508.84
2023-02-04T12:23:31.486Z,93506.72
2023-02-04T12:25:58.133Z,93506.47
2023-02-04T12:28:25.917Z,93495.44
2023-02-04T12:30:52.566Z,93506.03
2023-02-04T12:33:19.538Z,93494.38
2023-02-04T12:35:46.480Z,93486.88
2023-02-04T12:38:13.098Z,93492.41
2023-02-04T12:40:39.851Z,93491.09
2023-02-04T12:43:06.696Z,93497.06
2023-02-04T12:45:33.925Z,93500.47
2023-02-04T12:48:00.967Z,93499.97
2023-02-04T12:50:27.617Z,93492.94
2023-02-04T12:52:58.184Z,93499.28
2023-02-04T12:55:27.740Z,93492.28
2023-02-04T12:57:56.241Z,93503.84
2023-02-04T13:00:24.361Z,93506.69
2023-02-04T13:02:55.182Z,93502.72
2023-02-04T13:05:22.254Z,93506.69
2023-02-04T13:07:48.913Z,93512.16
2023-02-04T13:10:15.916Z,93514.41
2023-02-04T13:12:46.145Z,93521.06
2023-02-04T13:15:13.912Z,93516.69
2023-02-04T13:17:40.760Z,93514.56
2023-02-04T13:20:07.894Z,93513.91
2023-02-04T13:22:34.518Z,93520.00
2023-02-04T13:25:03.692Z,93522.19
2023-02-04T13:27:31.959Z,93525.34
2023-02-04T13:29:58.843Z,93525.63
2023-02-04T13:32:25.593Z,93528.22
2023-02-04T13:34:52.224Z,93534.97
2023-02-04T13:37:18.825Z,93526.72
2023-02-04T13:39:45.468Z,93533.03
2023-02-04T13:42:12.099Z,93537.47
2023-02-04T13:44:38.711Z,93542.00
2023-02-04T13:47:05.382Z,93544.28
2023-02-04T13:49:32.049Z,93543.75
2023-02-04T13:51:58.662Z,93547.03
2023-02-04T13:54:25.545Z,93540.16
2023-02-04T13:56:52.228Z,93541.66
2023-02-04T13:59:20.902Z,93539.91
2023-02-04T14:01:47.747Z,93554.13
2023-02-04T14:04:14.429Z,93559.81
2023-02-04T14:06:43.803Z,93551.94
2023-02-04T14:09:12.190Z,93560.53
2023-02-04T14:11:39.411Z,93569.84
2023-02-04T14:14:06.907Z,93576.34
2023-02-04T14:16:34.486Z,93576.63
2023-02-04T14:19:02.384Z,93576.28
2023-02-04T14:21:29.079Z,93585.22
2023-02-04T14:23:55.820Z,93587.00
2023-02-04T14:26:22.393Z,93605.66
2023-02-04T14:28:49.002Z,93616.88
2023-02-04T14:31:15.634Z,93614.56
2023-02-04T14:33:42.283Z,93634.25
2023-02-04T14:36:09.121Z,93633.53
2023-02-04T14:38:35.741Z,93629.63
2023-02-04T14:41:02.405Z,93629.72
2023-02-04T14:43:29.037Z,93630.56
2023-02-04T14:45:55.896Z,93618.25
2023-02-04T14:48:22.541Z,93623.69
2023-02-04T14:50:49.131Z,93628.38
2023-02-04T14:53:15.745Z,93623.25
2023-02-04T14:55:42.383Z,93633.38
2023-02-04T14:58:09.001Z,93632.31
2023-02-04T15:00:38.777Z,93635.22
2023-02-04T15:03:05.576Z,93635.38
2023-02-04T15:05:32.405Z,93634.88
2023-02-04T15:07:59.011Z,93632.69
2023-02-04T15:10:25.719Z,93642.44
2023-02-04T15:12:55.593Z,93639.06
2023-02-04T15:15:22.589Z,93643.34
2023-02-04T15:17:50.524Z,93650.31
2023-02-04T15:20:17.543Z,93665.38
2023-02-04T15:22:44.201Z,93658.72
2023-02-04T15:25:13.058Z,93663.31
2023-02-04T15:27:39.733Z,93673.31
2023-02-04T15:30:06.557Z,93668.97
2023-02-04T15:32:33.257Z,93673.16
2023-02-04T15:34:59.901Z,93692.72
2023-02-04T15:37:26.566Z,93693.91
2023-02-04T15:39:53.492Z,93686.34
2023-02-04T15:42:20.262Z,93693.59
2023-02-04T15:44:46.920Z,93707.50
2023-02-04T15:47:13.515Z,93710.28
2023-02-04T15:49:40.163Z,93710.25
2023-02-04T15:52:10.896Z,93709.91
2023-02-04T15:54:40.352Z,93718.63
2023-02-04T15:57:07.040Z,93728.63
2023-02-04T15:59:33.633Z,93713.78
2023-02-04T16:02:00.200Z,93723.94
2023-02-04T16:04:26.871Z,93731.03
2023-02-04T16:06:58.688Z,93725.53
2023-02-04T16:09:26.383Z,93738.56
2023-02-04T16:11:52.989Z,93747.59
2023-02-04T16:14:19.606Z,93761.81
2023-02-04T16:16:46.234Z,93764.78
2023-02-04T16:19:12.903Z,93761.94
2023-02-04T16:21:39.653Z,93809.31
2023-02-04T16:24:06.603Z,93767.69
2023-02-04T16:26:33.211Z,93775.63
2023-02-04T16:28:59.771Z,93775.59
2023-02-04T16:31:26.645Z,93792.41
2023-02-04T16:33:53.304Z,93785.38
2023-02-04T16:36:20.034Z,93763.13
2023-02-04T16:38:46.634Z,93788.75
2023-02-04T16:41:14.409Z,93794.50
2023-02-04T16:43:41.616Z,93800.38
2023-02-04T16:46:08.485Z,93797.66
2023-02-04T16:48:36.568Z,93793.38
2023-02-04T16:51:03.802Z,93794.13
2023-02-04T16:53:30.452Z,93791.03
2023-02-04T16:55:57.075Z,93793.28
2023-02-04T16:58:23.794Z,93800.75
2023-02-04T17:00:50.436Z,93804.69
2023-02-04T17:03:17.494Z,93823.13
2023-02-04T17:05:44.098Z,93838.06
2023-02-04T17:08:13.573Z,93825.28
2023-02-04T17:10:59.384Z,93819.91
2023-02-04T17:13:26.070Z,93824.41
2023-02-04T17:15:54.209Z,93829.59
2023-02-04T17:18:20.857Z,93828.22
2023-02-04T17:20:47.441Z,93834.06
2023-02-04T17:23:14.143Z,93834.72
2023-02-04T17:25:40.791Z,93830.88
2023-02-04T17:28:07.530Z,93842.63
2023-02-04T17:30:34.401Z,93842.09
2023-02-04T17:33:01.019Z,93834.66
2023-02-04T17:35:27.880Z,93837.16
2023-02-04T17:37:54.659Z,93835.22
2023-02-04T17:40:21.459Z,93845.88
2023-02-04T17:42:48.045Z,93843.31
2023-02-04T17:45:14.777Z,93837.78
2023-02-04T17:47:41.471Z,93846.13
2023-02-04T17:50:10.656Z,93845.94
2023-02-04T17:52:38.181Z,93851.22
2023-02-04T17:55:28.693Z,93845.50
2023-02-04T17:57:56.545Z,93850.19
2023-02-04T18:00:25.261Z,93863.25
2023-02-04T18:02:52.636Z,93870.91
2023-02-04T18:05:25.081Z,93869.50
2023-02-04T18:08:16.443Z,93871.38
2023-02-04T18:10:45.886Z,93867.78
2023-02-04T18:13:31.818Z,93864.28
2023-02-04T18:16:00.837Z,93857.31
2023-02-04T18:18:35.950Z,93861.84
2023-02-04T18:21:29.039Z,93865.47
2023-02-04T18:24:10.973Z,93871.72
2023-02-04T18:26:44.915Z,93868.88
2023-02-04T18:29:34.146Z,93870.50
2023-02-04T18:32:06.814Z,93863.34
2023-02-04T18:34:38.472Z,93873.06
2023-02-04T18:37:23.881Z,93865.38
2023-02-04T18:39:50.661Z,93870.00
2023-02-04T18:42:24.586Z,93877.03
2023-02-04T18:44:52.614Z,93866.78
2023-02-04T18:47:32.617Z,93870.31
2023-02-04T18:50:00.794Z,93859.38
2023-02-04T18:52:27.816Z,93856.22
2023-02-04T18:54:59.153Z,93857.88
2023-02-04T18:57:36.527Z,93848.88
2023-02-04T19:00:09.311Z,93846.50
2023-02-04T19:02:46.044Z,93842.75
2023-02-04T19:05:36.484Z,93842.94
2023-02-04T19:08:06.230Z,93846.59
2023-02-04T19:10:37.759Z,93852.81
2023-02-04T19:13:27.554Z,93839.44
2023-02-04T19:16:04.847Z,93854.44
2023-02-04T19:18:42.335Z,93866.09
2023-02-04T19:21:25.849Z,93873.66
2023-02-04T19:24:19.805Z,93874.88
2023-02-04T19:26:53.821Z,93875.59
2023-02-04T19:29:24.905Z,93879.19
2023-02-04T19:31:56.039Z,93881.00
2023-02-04T19:34:33.406Z,93891.81
2023-02-04T19:37:00.253Z,93893.50
2023-02-04T19:39:40.397Z,93901.03
2023-02-04T19:42:22.636Z,93890.91
2023-02-04T19:44:51.625Z,93889.97
2023-02-04T19:47:46.042Z,93901.53
2023-02-04T19:50:12.680Z,93901.28
2023-02-04T19:53:03.076Z,93894.44
2023-02-04T19:55:42.751Z,93904.00
2023-02-04T19:58:22.249Z,93900.81
2023-02-04T20:00:52.015Z,93907.94
2023-02-04T20:03:37.404Z,93920.75
2023-02-04T20:06:10.232Z,93908.75
2023-02-04T20:08:44.890Z,93915.88
2023-02-04T20:11:34.637Z,93910.72
2023-02-04T20:14:16.003Z,93912.38
2023-02-04T20:16:59.354Z,93920.53
2023-02-04T20:19:31.616Z,93931.97
2023-02-04T20:22:20.912Z,93922.34
2023-02-04T20:24:54.365Z,93928.56
2023-02-04T20:27:20.856Z,93928.94
2023-02-04T20:29:48.812Z,93939.78
2023-02-04T20:32:26.442Z,93945.50
2023-02-04T20:35:15.016Z,93959.16
2023-02-04T20:37:42.688Z,93962.78
2023-02-04T20:40:33.059Z,93964.75
2023-02-04T20:43:06.275Z,93974.22
2023-02-04T20:45:41.169Z,93966.81
2023-02-04T20:48:16.690Z,93971.50
2023-02-04T20:50:54.119Z,93976.91
2023-02-04T20:53:41.128Z,93979.13
2023-02-04T20:56:24.960Z,93986.16
2023-02-04T20:58:55.323Z,93983.38
2023-02-04T21:01:38.592Z,93975.50
2023-02-04T21:04:23.419Z,93976.09
2023-02-04T21:06:51.638Z,93986.03
2023-02-04T21:09:25.541Z,93977.25
2023-02-04T21:11:54.205Z,93980.53
2023-02-04T21:14:21.470Z,93991.53
2023-02-04T21:16:48.436Z,94007.66
2023-02-04T21:19:15.239Z,93990.13
2023-02-04T21:21:42.404Z,94001.00
2023-02-04T21:24:09.667Z,93986.91
2023-02-04T21:26:36.426Z,93998.28
2023-02-04T21:29:03.181Z,93996.09
2023-02-04T21:31:30.064Z,94003.44
2023-02-04T21:33:57.194Z,94007.66
2023-02-04T21:36:27.812Z,94009.50
2023-02-04T21:38:55.292Z,94008.06
2023-02-04T21:41:22.152Z,94009.22
2023-02-04T21:43:49.816Z,94015.50
2023-02-04T21:46:17.678Z,94010.91
2023-02-04T21:48:45.015Z,94025.13
2023-02-04T21:51:12.949Z,94025.06
2023-02-04T21:53:39.687Z,94022.41
2023-02-04T21:56:07.608Z,94026.84
2023-02-04T21:58:34.338Z,94042.50
2023-02-04T22:01:01.092Z,94043.06
2023-02-04T22:03:27.945Z,94048.78
2023-02-04T22:05:54.655Z,94055.81
2023-02-04T22:08:21.303Z,94052.31
2023-02-04T22:10:47.981Z,94054.69
2023-02-04T22:13:33.052Z,94060.13
2023-02-04T22:15:59.763Z,94052.28
2023-02-04T22:18:26.503Z,94053.28
2023-02-04T22:20:53.121Z,94056.28
2023-02-04T22:23:19.679Z,94070.88
2023-02-04T22:25:46.219Z,94077.75
2023-02-04T22:28:13.002Z,94070.75
2023-02-04T22:30:39.686Z,94083.31
2023-02-04T22:33:06.388Z,94085.31
2023-02-04T22:35:35.458Z,94086.56
2023-02-04T22:38:03.402Z,94087.03
2023-02-04T22:40:30.081Z,94091.81
2023-02-04T22:42:56.772Z,94084.78
2023-02-04T22:45:23.351Z,94092.84
2023-02-04T22:47:53.003Z,94078.94
2023-02-04T22:50:19.774Z,94085.59
2023-02-04T22:52:46.474Z,94092.63
2023-02-04T22:55:13.269Z,94098.06
2023-02-04T22:57:39.853Z,94093.53
2023-02-04T23:00:09.165Z,94106.13
2023-02-04T23:02:35.859Z,94095.84
2023-02-04T23:05:03.045Z,94116.88
2023-02-04T23:07:29.676Z,94114.38
2023-02-04T23:09:56.340Z,94130.41
2023-02-04T23:12:23.451Z,94133.84
2023-02-04T23:14:50.660Z,94133.53
2023-02-04T23:17:18.506Z,94144.25
2023-02-04T23:19:45.484Z,94142.78
2023-02-04T23:22:14.091Z,94150.88
2023-02-04T23:24:42.009Z,94145.03
2023-02-04T23:27:11.277Z,94146.53
2023-02-04T23:29:39.557Z,94136.81
2023-02-04T23:32:06.822Z,94147.59
2023-02-04T23:34:33.903Z,94144.22
2023-02-04T23:37:00.758Z,94158.72
2023-02-04T23:39:27.586Z,94151.53
2023-02-04T23:41:54.208Z,94145.75
2023-02-04T23:44:20.807Z,94157.75
2023-02-04T23:46:47.483Z,94155.66
2023-02-04T23:49:14.332Z,94164.03
2023-02-04T23:51:41.475Z,94167.66
2023-02-04T23:54:08.043Z,94170.28
2023-02-04T23:56:34.897Z,94174.00
2023-02-04T23:59:01.600Z,94183.56
